Bonita Springs, Florida
Current Conditions -  °F | °C
As of 9:53 PM on Friday 21 Nov 2014 (Local Time) from KRSW Reporting Station
Overcast Overcast  
Wind Chill: 67°   Ceiling: 3200
Heat Index: 67°   Visibility: 10mi
Dew Point: 59°   Wind: 13mph
Humidity: 76%   Direction: 80°E
Pressure: 30.21"   Gusts: NA
Location:  26.34°N, 81.78°W
Report Text: KRSW 220253Z AUTO 08011KT 10SM OVC032 19/15 A3021 RMK AO2 SLP226 T01940150 51008
Loading
Personal Weather Stations






























Interactive Weather Map New forecast layout! Learn more

10-Day Weather Forecast

Advertisements
Track Severe Weather on mobile